Time;durP1;ratioP1;P1;durP2;ratioP2;P2;SDS_P1;SDS_P2;PMS_P1;PMS_P2;Temp;Humidity;BMP_temperature;BMP_pressure;BME280_temperature;BME280_humidity;BME280_pressure;Samples;Min_cycle;Max_cycle;Signal;HPM_P1;HPM_P2
2024/02/16 00:00:16;;;;;;;7.70;3.47;;;12.10;99.90;;;;;;4885796;29;20423;-80
2024/02/16 00:02:44;;;;;;;4.53;2.30;;;12.10;99.90;;;;;;4920938;29;20052;-80
2024/02/16 00:05:11;;;;;;;4.18;3.17;;;12.10;99.90;;;;;;4887935;29;20535;-80
2024/02/16 00:07:39;;;;;;;3.05;2.78;;;12.10;99.90;;;;;;4908822;29;20058;-80
2024/02/16 00:10:11;;;;;;;4.70;2.88;;;12.10;99.90;;;;;;4886022;29;20102;-80
2024/02/16 00:12:40;;;;;;;5.47;4.43;;;12.10;99.90;;;;;;4908692;29;20044;-80
2024/02/16 00:15:07;;;;;;;5.63;2.95;;;12.10;99.90;;;;;;4906304;29;20044;-80
2024/02/16 00:17:35;;;;;;;3.05;2.75;;;12.00;99.90;;;;;;4890258;29;20402;-80
2024/02/16 00:20:02;;;;;;;3.42;3.08;;;12.00;99.90;;;;;;4874963;29;20062;-80
2024/02/16 00:22:30;;;;;;;3.58;2.40;;;12.00;99.90;;;;;;4889648;29;20048;-79
2024/02/16 00:24:57;;;;;;;4.63;3.72;;;12.00;99.90;;;;;;4898623;29;20151;-80
2024/02/16 00:27:24;;;;;;;3.13;2.80;;;12.00;99.90;;;;;;4919703;29;20083;-79
2024/02/16 00:29:52;;;;;;;3.60;3.30;;;12.00;99.90;;;;;;4863601;29;20080;-80
2024/02/16 00:32:19;;;;;;;4.30;3.38;;;12.00;99.90;;;;;;4902007;29;20048;-80
2024/02/16 00:34:47;;;;;;;3.92;3.17;;;12.00;99.90;;;;;;4911285;29;20447;-80
2024/02/16 00:37:15;;;;;;;4.53;3.20;;;12.00;99.90;;;;;;4879465;29;20448;-80
2024/02/16 00:39:42;;;;;;;3.45;3.13;;;12.00;99.90;;;;;;4914677;29;20052;-80
2024/02/16 00:42:10;;;;;;;6.43;4.68;;;12.00;99.90;;;;;;4882445;29;20436;-80
2024/02/16 00:44:38;;;;;;;6.22;2.90;;;12.10;99.90;;;;;;4914274;29;20047;-80
2024/02/16 00:47:06;;;;;;;5.35;4.43;;;12.00;99.90;;;;;;4915551;29;20123;-80
2024/02/16 00:49:33;;;;;;;3.67;2.63;;;12.00;99.90;;;;;;4888541;29;20067;-80
2024/02/16 00:52:01;;;;;;;6.60;4.20;;;12.10;99.90;;;;;;4893495;29;20117;-80
2024/02/16 00:54:29;;;;;;;4.93;3.95;;;12.10;99.90;;;;;;4890028;29;20108;-80
2024/02/16 00:57:01;;;;;;;4.10;2.28;;;12.10;99.90;;;;;;4910268;29;20048;-80
2024/02/16 00:59:29;;;;;;;3.53;2.78;;;12.00;99.90;;;;;;4916026;29;20043;-80
2024/02/16 01:01:57;;;;;;;3.65;2.80;;;12.00;99.90;;;;;;4905959;29;20040;-80
2024/02/16 01:04:25;;;;;;;4.57;2.25;;;12.00;99.90;;;;;;4914394;29;20040;-80
2024/02/16 01:06:52;;;;;;;2.83;2.35;;;12.00;99.90;;;;;;4910664;29;20139;-80
2024/02/16 01:09:19;;;;;;;6.90;3.40;;;11.90;99.90;;;;;;4903267;29;20138;-80
2024/02/16 01:11:47;;;;;;;4.15;3.67;;;11.90;99.90;;;;;;4906509;29;20084;-80
2024/02/16 01:14:14;;;;;;;3.83;2.55;;;11.90;99.90;;;;;;4894877;29;20058;-80
2024/02/16 01:16:42;;;;;;;2.58;2.33;;;11.90;99.90;;;;;;4909070;29;20052;-79
2024/02/16 01:19:09;;;;;;;4.22;3.83;;;11.80;99.90;;;;;;4885059;29;20099;-80
2024/02/16 01:21:37;;;;;;;3.47;2.75;;;11.80;99.90;;;;;;4899455;29;20036;-80
2024/02/16 01:24:05;;;;;;;5.35;3.72;;;11.80;99.90;;;;;;4889073;29;20055;-80
2024/02/16 01:26:32;;;;;;;3.13;2.65;;;11.80;99.90;;;;;;4907655;29;20126;-80
2024/02/16 01:29:02;;;;;;;4.15;3.45;;;11.70;99.90;;;;;;4921515;29;20043;-80
2024/02/16 01:31:29;;;;;;;6.13;4.07;;;11.70;99.90;;;;;;4908980;29;20058;-80
2024/02/16 01:33:56;;;;;;;4.38;3.92;;;11.70;99.90;;;;;;4889001;29;20036;-80
2024/02/16 01:36:23;;;;;;;3.53;3.10;;;11.60;99.90;;;;;;4898088;29;20051;-79
2024/02/16 01:38:51;;;;;;;4.65;2.90;;;11.60;99.90;;;;;;4897512;29;20036;-79
2024/02/16 01:41:18;;;;;;;4.47;3.10;;;11.60;99.90;;;;;;4909670;29;20103;-80
2024/02/16 01:43:45;;;;;;;4.68;4.10;;;11.60;99.90;;;;;;4907036;29;20052;-80
2024/02/16 01:46:12;;;;;;;3.88;3.38;;;11.50;99.90;;;;;;4911775;29;20051;-79
2024/02/16 01:48:42;;;;;;;3.83;2.53;;;11.50;99.90;;;;;;4905960;29;20142;-80
2024/02/16 01:51:12;;;;;;;6.95;3.10;;;11.50;99.90;;;;;;4889220;29;20055;-80
2024/02/16 01:53:42;;;;;;;5.57;3.25;;;11.50;99.90;;;;;;4904053;29;20411;-80
2024/02/16 01:56:09;;;;;;;3.65;2.58;;;11.50;99.90;;;;;;4886374;29;20055;-79
2024/02/16 01:58:37;;;;;;;2.72;2.00;;;11.50;99.90;;;;;;4882653;29;20044;-80
2024/02/16 02:01:05;;;;;;;5.43;3.35;;;11.50;99.90;;;;;;4895542;29;20051;-80
2024/02/16 02:03:34;;;;;;;2.60;2.38;;;11.50;99.90;;;;;;4887510;29;20523;-80
2024/02/16 02:06:02;;;;;;;2.80;2.42;;;11.50;99.90;;;;;;4909611;29;20082;-80
2024/02/16 02:08:30;;;;;;;5.47;2.85;;;11.40;99.90;;;;;;4888713;29;20523;-80
2024/02/16 02:10:57;;;;;;;3.13;2.33;;;11.40;99.90;;;;;;4916160;29;20055;-80
2024/02/16 02:13:24;;;;;;;3.55;3.25;;;11.40;99.90;;;;;;4907560;29;20491;-80
2024/02/16 02:15:55;;;;;;;5.10;2.50;;;11.40;99.90;;;;;;4887941;29;20055;-80
2024/02/16 02:18:22;;;;;;;2.90;2.58;;;11.40;99.90;;;;;;4912590;29;20071;-79
2024/02/16 02:20:50;;;;;;;3.75;2.67;;;11.40;99.90;;;;;;4899622;29;20066;-79
2024/02/16 02:23:17;;;;;;;3.08;2.30;;;11.40;99.90;;;;;;4899875;29;20044;-80
2024/02/16 02:25:44;;;;;;;3.05;2.63;;;11.40;99.90;;;;;;4882887;29;20135;-79
2024/02/16 02:28:11;;;;;;;4.22;3.10;;;11.30;99.90;;;;;;4887272;29;20185;-80
2024/02/16 02:30:39;;;;;;;2.65;2.45;;;11.30;99.90;;;;;;4919253;29;20537;-80
2024/02/16 02:33:06;;;;;;;3.95;3.22;;;11.30;99.90;;;;;;4894554;29;20059;-80
2024/02/16 02:35:34;;;;;;;3.20;2.42;;;11.30;99.90;;;;;;4889286;29;20107;-80
2024/02/16 02:38:02;;;;;;;4.38;3.05;;;11.30;99.90;;;;;;4911748;29;20131;-80
2024/02/16 02:40:32;;;;;;;4.97;3.50;;;11.30;99.90;;;;;;4882591;29;20076;-80
2024/02/16 02:42:59;;;;;;;4.53;2.08;;;11.30;99.90;;;;;;4886612;29;20112;-80
2024/02/16 02:45:26;;;;;;;3.47;3.13;;;11.30;99.90;;;;;;4916579;29;20052;-79
2024/02/16 02:47:53;;;;;;;5.03;3.47;;;11.30;99.90;;;;;;4904073;29;20055;-80
2024/02/16 02:50:20;;;;;;;3.70;2.55;;;11.30;99.90;;;;;;4891020;29;20052;-80
2024/02/16 02:52:49;;;;;;;3.28;2.90;;;11.30;99.90;;;;;;4896528;29;20135;-80
2024/02/16 02:55:16;;;;;;;4.85;2.28;;;11.30;99.90;;;;;;4906815;29;20042;-79
2024/02/16 02:57:43;;;;;;;3.88;2.95;;;11.30;99.90;;;;;;4916228;29;20055;-79
2024/02/16 03:00:11;;;;;;;4.95;2.88;;;11.30;99.90;;;;;;4928204;29;20127;-79
2024/02/16 03:02:43;;;;;;;3.53;2.97;;;11.20;99.90;;;;;;4917381;29;20055;-79
2024/02/16 03:05:11;;;;;;;4.43;2.45;;;11.10;99.90;;;;;;4921323;29;20048;-79
2024/02/16 03:07:38;;;;;;;4.20;2.60;;;11.20;99.90;;;;;;4906672;29;20518;-79
2024/02/16 03:10:09;;;;;;;2.50;1.80;;;11.20;99.90;;;;;;4914145;29;20496;-79
2024/02/16 03:12:37;;;;;;;3.25;2.72;;;11.10;99.90;;;;;;4895854;29;20052;-79
2024/02/16 03:15:04;;;;;;;2.97;2.47;;;11.10;99.90;;;;;;4873189;29;20079;-80
2024/02/16 03:17:31;;;;;;;5.78;2.88;;;11.10;99.90;;;;;;4915565;29;20055;-79
2024/02/16 03:19:58;;;;;;;2.95;2.08;;;11.10;99.90;;;;;;4875771;29;20048;-80
2024/02/16 03:22:25;;;;;;;4.22;2.67;;;11.10;99.90;;;;;;4881695;29;20138;-79
2024/02/16 03:24:53;;;;;;;4.95;2.60;;;11.00;99.90;;;;;;4916956;29;20103;-80
2024/02/16 03:27:20;;;;;;;2.63;1.75;;;11.00;99.90;;;;;;4869512;29;20419;-80
2024/02/16 03:29:47;;;;;;;2.33;1.77;;;11.00;99.90;;;;;;4888216;29;20056;-80
2024/02/16 03:32:14;;;;;;;2.45;2.25;;;11.00;99.90;;;;;;4898145;29;20199;-80
2024/02/16 03:34:42;;;;;;;4.78;3.15;;;11.00;99.90;;;;;;4900946;29;20048;-80
2024/02/16 03:37:09;;;;;;;4.43;3.00;;;11.00;99.90;;;;;;4895190;29;20103;-80
2024/02/16 03:39:36;;;;;;;3.60;2.90;;;10.90;99.90;;;;;;4898100;29;20468;-80
2024/02/16 03:42:04;;;;;;;4.70;3.70;;;11.00;99.90;;;;;;4889311;29;20424;-80
2024/02/16 03:44:32;;;;;;;3.78;2.55;;;11.00;99.90;;;;;;4884008;29;20076;-80
2024/02/16 03:46:59;;;;;;;3.63;2.92;;;10.90;99.90;;;;;;4880375;29;20036;-80
2024/02/16 03:49:29;;;;;;;5.90;3.03;;;10.90;99.90;;;;;;4920411;29;20052;-79
2024/02/16 03:51:57;;;;;;;4.97;3.55;;;10.90;99.90;;;;;;4912012;29;20048;-80
2024/02/16 03:54:24;;;;;;;1.67;1.58;;;10.90;99.90;;;;;;4897420;29;20048;-80
2024/02/16 03:56:54;;;;;;;2.60;1.63;;;10.90;99.90;;;;;;4903943;29;20048;-80
2024/02/16 03:59:23;;;;;;;6.30;2.63;;;10.90;99.90;;;;;;4903058;29;20067;-80
2024/02/16 04:01:52;;;;;;;2.30;1.88;;;10.90;99.90;;;;;;4911948;29;20431;-80
2024/02/16 04:04:19;;;;;;;5.00;2.63;;;10.90;99.90;;;;;;4900584;29;20052;-80
2024/02/16 04:06:46;;;;;;;3.30;3.00;;;10.90;99.90;;;;;;4847246;29;1165705;-80
2024/02/16 04:09:14;;;;;;;5.72;2.88;;;10.90;99.90;;;;;;4898746;29;20693;-80
2024/02/16 04:11:41;;;;;;;3.22;2.92;;;10.80;99.90;;;;;;4913443;29;20423;-80
2024/02/16 04:14:09;;;;;;;4.07;3.67;;;10.80;99.90;;;;;;4895473;29;20393;-80
2024/02/16 04:16:36;;;;;;;3.97;3.47;;;10.80;99.90;;;;;;4909297;29;20040;-80
2024/02/16 04:19:03;;;;;;;5.57;3.40;;;10.70;99.90;;;;;;4922700;29;20127;-79
2024/02/16 04:21:31;;;;;;;3.05;2.40;;;10.70;99.90;;;;;;4910272;29;20048;-80
2024/02/16 04:23:59;;;;;;;3.85;2.80;;;10.70;99.90;;;;;;4888227;29;20404;-79
2024/02/16 04:26:26;;;;;;;4.45;2.67;;;10.70;99.90;;;;;;4899175;29;20127;-79
2024/02/16 04:28:54;;;;;;;3.95;3.17;;;10.70;99.90;;;;;;4885562;29;20518;-79
2024/02/16 04:31:21;;;;;;;3.72;2.72;;;10.70;99.90;;;;;;4909283;29;20047;-79
2024/02/16 04:33:48;;;;;;;3.03;2.08;;;10.70;99.90;;;;;;4915210;29;20711;-79
2024/02/16 04:36:16;;;;;;;7.32;3.85;;;10.70;99.90;;;;;;4901426;29;20561;-78
2024/02/16 04:38:44;;;;;;;3.38;2.60;;;10.70;99.90;;;;;;4926431;29;20048;-80
2024/02/16 04:41:11;;;;;;;2.17;1.80;;;10.70;99.90;;;;;;4913011;29;20501;-79
2024/02/16 04:43:39;;;;;;;3.50;2.33;;;10.70;99.90;;;;;;4902134;29;20055;-79
2024/02/16 04:46:06;;;;;;;4.10;2.63;;;10.80;99.90;;;;;;4899347;29;20063;-80
2024/02/16 04:48:34;;;;;;;2.90;2.40;;;10.80;99.90;;;;;;4878816;29;20538;-79
2024/02/16 04:51:02;;;;;;;3.72;2.70;;;10.80;99.90;;;;;;4914960;29;20574;-79
2024/02/16 04:53:31;;;;;;;4.70;2.63;;;10.90;99.90;;;;;;4867452;29;20064;-79
2024/02/16 04:55:58;;;;;;;4.68;3.17;;;10.80;99.90;;;;;;4885927;29;20044;-79
2024/02/16 04:58:26;;;;;;;4.80;2.97;;;10.90;99.90;;;;;;4893893;29;20040;-79
2024/02/16 05:00:53;;;;;;;5.38;3.35;;;11.00;99.90;;;;;;4897783;29;20055;-79
2024/02/16 05:03:21;;;;;;;4.03;3.28;;;11.00;99.90;;;;;;4914291;29;20059;-80
2024/02/16 05:05:54;;;;;;;2.55;2.35;;;11.10;99.90;;;;;;4889825;29;20052;-79
2024/02/16 05:08:24;;;;;;;2.50;2.20;;;11.10;99.90;;;;;;4920669;29;20051;-79
2024/02/16 05:10:51;;;;;;;6.18;2.47;;;11.10;99.90;;;;;;4888080;29;20130;-80
2024/02/16 05:13:19;;;;;;;3.35;3.05;;;11.20;99.90;;;;;;4893320;29;20392;-79
2024/02/16 05:15:48;;;;;;;3.47;2.50;;;11.20;99.90;;;;;;4887328;29;20453;-79
2024/02/16 05:18:17;;;;;;;4.03;2.72;;;11.20;99.90;;;;;;4893462;29;20059;-79
2024/02/16 05:20:44;;;;;;;3.13;2.28;;;11.20;99.90;;;;;;4902353;29;20055;-80
2024/02/16 05:23:12;;;;;;;4.47;3.10;;;11.10;99.90;;;;;;4920512;29;20468;-79
2024/02/16 05:25:41;;;;;;;2.40;2.00;;;11.10;99.90;;;;;;4894162;29;20044;-80
2024/02/16 05:28:08;;;;;;;5.28;2.35;;;11.00;99.90;;;;;;4914872;29;20076;-79
2024/02/16 05:30:35;;;;;;;5.93;3.45;;;11.00;99.90;;;;;;4915467;29;20051;-79
2024/02/16 05:33:03;;;;;;;4.03;2.05;;;11.00;99.90;;;;;;4903710;29;20570;-79
2024/02/16 05:35:33;;;;;;;3.92;2.15;;;11.00;99.90;;;;;;4886100;29;20500;-79
2024/02/16 05:38:07;;;;;;;;;;;11.00;99.90;;;;;;4916317;29;20036;-79
2024/02/16 05:40:53;;;;;;;3.58;2.80;;;11.00;99.90;;;;;;4910097;29;20489;-80
2024/02/16 05:43:20;;;;;;;3.47;3.17;;;11.00;99.90;;;;;;4908600;29;20060;-79
2024/02/16 05:45:48;;;;;;;4.40;2.88;;;11.00;99.90;;;;;;4884633;29;20407;-79
2024/02/16 05:48:15;;;;;;;5.15;2.88;;;11.00;99.90;;;;;;4918894;29;20047;-79
2024/02/16 05:50:44;;;;;;;3.47;3.10;;;11.00;99.90;;;;;;4912460;29;20055;-79
2024/02/16 05:53:11;;;;;;;4.50;3.33;;;11.00;99.90;;;;;;4909415;29;20044;-80
2024/02/16 05:55:39;;;;;;;4.50;3.38;;;11.00;99.90;;;;;;4908539;29;20051;-80
2024/02/16 05:58:06;;;;;;;5.22;2.72;;;11.00;99.90;;;;;;4906926;29;20471;-80
2024/02/16 06:00:34;;;;;;;4.05;2.42;;;11.00;99.90;;;;;;4908262;29;20073;-80
2024/02/16 06:03:02;;;;;;;4.22;3.20;;;11.00;99.90;;;;;;4891492;29;20058;-80
2024/02/16 06:05:30;;;;;;;6.20;3.30;;;10.90;99.90;;;;;;4884396;29;21194;-80
2024/02/16 06:07:57;;;;;;;4.47;2.92;;;10.90;99.90;;;;;;4899184;29;20051;-80
2024/02/16 06:10:24;;;;;;;6.72;3.65;;;10.80;99.90;;;;;;4887692;29;20044;-80
2024/02/16 06:12:52;;;;;;;3.60;2.95;;;10.80;99.90;;;;;;4896142;29;20507;-79
2024/02/16 06:15:19;;;;;;;2.83;2.45;;;10.80;99.90;;;;;;4867708;29;20100;-80
2024/02/16 06:17:49;;;;;;;5.65;3.40;;;10.80;99.90;;;;;;4896277;29;20718;-80
2024/02/16 06:20:16;;;;;;;5.50;3.28;;;10.70;99.90;;;;;;4880538;29;20048;-80
2024/02/16 06:22:45;;;;;;;4.72;3.25;;;10.70;99.90;;;;;;4881545;29;20529;-80
2024/02/16 06:25:12;;;;;;;5.45;3.90;;;10.70;99.90;;;;;;4909233;29;20078;-80
2024/02/16 06:27:40;;;;;;;3.63;2.70;;;10.70;99.90;;;;;;4897143;29;20111;-79
2024/02/16 06:30:12;;;;;;;4.38;3.75;;;10.70;99.90;;;;;;4903458;29;20052;-80
2024/02/16 06:32:42;;;;;;;4.63;2.85;;;10.60;99.90;;;;;;4886841;29;20128;-79
2024/02/16 06:35:11;;;;;;;3.75;2.72;;;10.60;99.90;;;;;;4907599;29;20048;-79
2024/02/16 06:37:38;;;;;;;3.13;2.70;;;10.70;99.90;;;;;;4882143;29;20075;-79
2024/02/16 06:40:10;;;;;;;5.70;3.53;;;10.70;99.90;;;;;;4906522;29;20526;-80
2024/02/16 06:42:38;;;;;;;4.72;2.92;;;10.70;99.90;;;;;;4912801;29;20083;-79
2024/02/16 06:45:06;;;;;;;6.78;3.33;;;10.70;99.90;;;;;;4912287;29;20051;-79
2024/02/16 06:47:33;;;;;;;4.72;3.10;;;10.70;99.90;;;;;;4920115;29;20046;-79
2024/02/16 06:50:00;;;;;;;2.97;2.60;;;10.70;99.90;;;;;;4894507;29;20131;-80
2024/02/16 06:52:28;;;;;;;9.80;3.92;;;10.70;99.90;;;;;;4907700;29;20406;-80
2024/02/16 06:54:55;;;;;;;5.03;2.90;;;10.70;99.90;;;;;;4907003;29;20036;-79
2024/02/16 06:57:25;;;;;;;4.63;3.33;;;10.70;99.90;;;;;;4923484;29;20887;-79
2024/02/16 06:59:53;;;;;;;3.65;3.17;;;10.80;99.90;;;;;;4909346;29;20526;-79
2024/02/16 07:02:20;;;;;;;3.92;3.13;;;10.80;99.90;;;;;;4886817;29;20122;-79
2024/02/16 07:04:47;;;;;;;7.40;4.28;;;10.90;99.90;;;;;;4890463;29;20119;-79
2024/02/16 07:07:15;;;;;;;4.53;3.70;;;11.00;99.90;;;;;;4903556;29;20052;-79
2024/02/16 07:09:42;;;;;;;3.75;2.72;;;11.00;99.90;;;;;;4888045;29;20147;-79
2024/02/16 07:12:11;;;;;;;4.65;3.10;;;11.10;99.90;;;;;;4885481;29;20055;-80
2024/02/16 07:14:39;;;;;;;5.93;3.58;;;11.10;99.90;;;;;;4913002;29;20491;-80
2024/02/16 07:17:09;;;;;;;5.93;3.17;;;11.20;99.90;;;;;;4909564;29;20081;-80
2024/02/16 07:19:37;;;;;;;4.25;3.70;;;11.20;99.90;;;;;;4893668;29;20130;-79
2024/02/16 07:22:06;;;;;;;5.50;3.30;;;11.30;99.90;;;;;;4914070;29;20427;-79
2024/02/16 07:24:34;;;;;;;7.65;3.13;;;11.40;99.90;;;;;;4901065;29;20059;-80
2024/02/16 07:27:01;;;;;;;4.40;3.75;;;11.40;99.90;;;;;;4898128;29;20047;-80
2024/02/16 07:29:29;;;;;;;6.35;3.13;;;11.50;99.90;;;;;;4885108;29;20084;-80
2024/02/16 07:31:56;;;;;;;3.10;1.80;;;11.50;99.90;;;;;;4914435;29;20040;-79
2024/02/16 07:34:23;;;;;;;3.15;2.63;;;11.60;99.90;;;;;;4901966;29;20041;-80
2024/02/16 07:36:51;;;;;;;8.15;4.22;;;11.60;99.90;;;;;;4897884;29;20048;-80
2024/02/16 07:39:22;;;;;;;5.03;3.20;;;11.60;99.90;;;;;;4879812;29;20037;-80
2024/02/16 07:41:50;;;;;;;;;;;11.70;99.90;;;;;;4925317;29;20060;-79
2024/02/16 07:44:18;;;;;;;4.65;3.25;;;11.70;99.90;;;;;;4906242;29;19927;-79
2024/02/16 07:46:45;;;;;;;4.10;3.70;;;11.70;99.90;;;;;;4903634;29;20068;-79
2024/02/16 07:49:13;;;;;;;4.13;2.40;;;11.80;99.90;;;;;;4906715;29;20056;-80
2024/02/16 07:51:40;;;;;;;5.57;3.65;;;11.90;99.90;;;;;;4891238;29;20123;-80
2024/02/16 07:54:08;;;;;;;5.32;3.63;;;11.90;99.90;;;;;;4905702;29;20071;-80
2024/02/16 07:56:35;;;;;;;2.95;2.65;;;11.90;99.90;;;;;;4903107;29;20048;-80
2024/02/16 07:59:05;;;;;;;4.63;4.22;;;11.90;99.90;;;;;;4919826;29;20039;-79
2024/02/16 08:01:32;;;;;;;3.67;3.17;;;12.00;99.90;;;;;;4900794;29;20044;-80
2024/02/16 08:04:00;;;;;;;5.97;3.78;;;12.00;99.90;;;;;;4922781;29;20119;-79
2024/02/16 08:06:30;;;;;;;3.95;3.53;;;12.10;99.90;;;;;;4884930;29;20048;-80
2024/02/16 08:08:57;;;;;;;5.30;3.45;;;12.10;99.90;;;;;;4926084;29;20051;-80
2024/02/16 08:11:25;;;;;;;4.03;2.92;;;12.00;99.90;;;;;;4906044;29;20040;-80
2024/02/16 08:13:52;;;;;;;5.50;4.00;;;12.10;99.90;;;;;;4888039;29;20082;-79
2024/02/16 08:16:19;;;;;;;3.97;2.67;;;12.10;99.90;;;;;;4901216;29;20044;-79
2024/02/16 08:18:46;;;;;;;4.68;4.25;;;12.10;99.90;;;;;;4903468;29;20075;-79
2024/02/16 08:21:14;;;;;;;5.38;2.80;;;12.10;99.90;;;;;;4911921;29;20483;-79
2024/02/16 08:23:41;;;;;;;4.63;3.22;;;12.20;99.90;;;;;;4897129;29;20487;-80
2024/02/16 08:26:08;;;;;;;3.30;3.00;;;12.20;99.90;;;;;;4878512;29;20058;-79
2024/02/16 08:28:35;;;;;;;4.90;3.15;;;12.20;99.90;;;;;;4883523;29;20092;-80
2024/02/16 08:31:02;;;;;;;3.95;3.45;;;12.20;99.90;;;;;;4927427;29;20071;-80
2024/02/16 08:33:31;;;;;;;2.75;2.53;;;12.20;99.90;;;;;;4891797;29;20111;-79
2024/02/16 08:35:59;;;;;;;2.53;2.33;;;12.30;99.90;;;;;;4900768;29;20072;-79
2024/02/16 08:38:26;;;;;;;3.92;3.55;;;12.30;99.90;;;;;;4900512;29;20562;-79
2024/02/16 08:40:53;;;;;;;6.00;3.47;;;12.30;99.90;;;;;;4906042;29;20056;-79
2024/02/16 08:43:20;;;;;;;4.93;2.85;;;12.30;99.90;;;;;;4868249;29;20048;-79
2024/02/16 08:45:47;;;;;;;5.15;3.28;;;12.30;99.90;;;;;;4894703;29;20059;-79
2024/02/16 08:48:14;;;;;;;4.50;3.22;;;12.30;99.90;;;;;;4899404;29;20515;-79
2024/02/16 08:50:43;;;;;;;2.80;2.30;;;12.40;99.90;;;;;;4894181;29;20048;-79
2024/02/16 08:53:13;;;;;;;4.03;3.60;;;12.30;99.90;;;;;;4901440;29;20056;-79
2024/02/16 08:55:41;;;;;;;4.70;2.72;;;12.50;99.90;;;;;;4900766;29;20051;-79
2024/02/16 08:58:08;;;;;;;7.00;2.95;;;12.50;99.90;;;;;;4893257;29;20405;-80
2024/02/16 09:00:35;;;;;;;5.70;4.40;;;12.60;99.90;;;;;;4906322;29;20050;-79
2024/02/16 09:03:03;;;;;;;3.90;3.50;;;12.60;99.90;;;;;;4903520;29;20060;-79
2024/02/16 09:05:30;;;;;;;3.22;2.65;;;12.60;99.90;;;;;;4909137;29;20103;-80
2024/02/16 09:07:59;;;;;;;3.53;3.03;;;12.70;99.90;;;;;;4897627;29;20769;-79
2024/02/16 09:10:26;;;;;;;4.15;3.22;;;12.70;99.90;;;;;;4906802;29;20127;-79
2024/02/16 09:12:53;;;;;;;5.22;2.75;;;12.80;99.90;;;;;;4890526;29;20044;-79
2024/02/16 09:15:20;;;;;;;4.30;3.55;;;12.70;99.90;;;;;;4890819;29;20469;-80
2024/02/16 09:17:48;;;;;;;4.15;2.83;;;12.90;99.90;;;;;;4889771;29;20036;-79
2024/02/16 09:20:15;;;;;;;4.18;3.72;;;12.90;99.90;;;;;;4883088;29;20051;-80
2024/02/16 09:22:43;;;;;;;3.45;3.00;;;13.00;99.90;;;;;;4929529;29;20495;-80
2024/02/16 09:30:04;;;;;;;4.22;3.85;;;13.10;99.90;;;;;;4918569;29;20419;-80
2024/02/16 09:32:31;;;;;;;4.93;3.55;;;13.10;99.90;;;;;;4908617;29;20531;-80
2024/02/16 09:34:58;;;;;;;4.32;3.50;;;13.10;99.90;;;;;;4896506;29;20052;-80
2024/02/16 09:37:26;;;;;;;5.03;4.15;;;13.20;99.90;;;;;;4912221;29;20210;-80
2024/02/16 09:39:54;;;;;;;3.47;2.95;;;13.20;99.90;;;;;;4908219;29;20048;-79
2024/02/16 09:42:25;;;;;;;3.17;2.65;;;13.30;99.90;;;;;;4914830;29;20104;-80
2024/02/16 09:44:54;;;;;;;5.07;2.88;;;13.30;99.90;;;;;;4906971;29;20148;-79
2024/02/16 09:47:23;;;;;;;5.47;3.50;;;13.40;99.90;;;;;;4912315;29;20115;-79
2024/02/16 09:49:50;;;;;;;4.20;3.38;;;13.50;99.90;;;;;;4896526;29;20067;-80
2024/02/16 09:52:17;;;;;;;4.55;3.58;;;13.60;99.90;;;;;;4893925;29;20159;-79
2024/02/16 09:54:45;;;;;;;4.88;3.58;;;13.60;99.90;;;;;;4906371;29;20040;-79
2024/02/16 09:57:16;;;;;;;4.97;3.55;;;13.70;99.90;;;;;;4894573;29;20060;-79
2024/02/16 10:02:46;;;;;;;5.65;3.33;;;13.80;99.90;;;;;;4919556;23;20060;-82
2024/02/16 10:05:20;;;;;;;4.00;2.83;;;13.90;99.90;;;;;;4889301;29;20148;-81
2024/02/16 10:07:48;;;;;;;3.72;3.20;;;14.00;99.90;;;;;;4892355;29;20059;-82
2024/02/16 10:10:33;;;;;;;6.68;4.05;;;14.00;99.90;;;;;;4872190;29;20048;-82
2024/02/16 10:13:07;;;;;;;5.82;4.68;;;14.00;99.90;;;;;;4882061;29;20036;-82
2024/02/16 10:15:35;;;;;;;4.45;4.05;;;14.10;99.90;;;;;;4909485;29;20388;-82
2024/02/16 10:18:08;;;;;;;6.05;3.92;;;14.10;99.90;;;;;;4885723;29;20049;-80
2024/02/16 10:20:39;;;;;;;7.85;5.93;;;14.20;99.90;;;;;;4885054;29;20044;-81
2024/02/16 10:23:12;;;;;;;3.67;3.38;;;14.20;99.90;;;;;;4885778;29;20041;-81
2024/02/16 10:25:41;;;;;;;5.80;3.97;;;14.20;99.90;;;;;;4903918;29;20100;-81
2024/02/16 10:28:11;;;;;;;4.45;3.92;;;14.30;99.90;;;;;;4889308;29;20052;-81
2024/02/16 10:30:40;;;;;;;8.20;6.25;;;14.30;99.90;;;;;;4873882;29;20067;-82
2024/02/16 10:33:09;;;;;;;4.97;4.22;;;14.20;99.90;;;;;;4907970;29;20041;-80
2024/02/16 10:35:37;;;;;;;7.10;3.95;;;14.30;99.90;;;;;;4890256;29;20053;-82
2024/02/16 10:38:09;;;;;;;3.60;2.72;;;14.30;99.90;;;;;;4899442;29;20562;-82
2024/02/16 10:40:39;;;;;;;5.18;3.85;;;14.50;99.90;;;;;;4889671;29;20067;-81
2024/02/16 10:43:07;;;;;;;4.47;3.63;;;14.60;99.90;;;;;;4899906;29;20063;-81
2024/02/16 10:45:39;;;;;;;6.32;3.63;;;14.80;99.90;;;;;;4876494;29;20096;-81
2024/02/16 10:48:07;;;;;;;7.05;4.80;;;15.00;99.90;;;;;;4871917;29;20059;-82
2024/02/16 10:50:36;;;;;;;5.57;4.15;;;15.00;99.90;;;;;;4865530;29;20059;-82
2024/02/16 10:53:18;;;;;;;6.22;5.15;;;15.00;99.90;;;;;;4871892;29;20051;-82
2024/02/16 10:55:47;;;;;;;8.40;5.20;;;15.10;99.90;;;;;;4886254;29;20045;-82
2024/02/16 10:58:22;;;;;;;4.90;4.50;;;15.10;99.90;;;;;;4861970;29;20151;-82
2024/02/16 11:00:51;;;;;;;9.43;5.20;;;15.20;99.90;;;;;;4871462;29;20044;-82
2024/02/16 11:03:29;;;;;;;5.07;4.15;;;15.20;99.90;;;;;;4877626;29;20048;-82
2024/02/16 11:05:58;;;;;;;3.78;3.42;;;15.30;99.90;;;;;;4893346;29;20052;-81
2024/02/16 11:08:28;;;;;;;7.13;4.25;;;15.10;99.90;;;;;;4884115;29;20171;-82
2024/02/16 11:11:00;;;;;;;8.65;7.82;;;15.00;99.90;;;;;;4873182;29;20059;-81
2024/02/16 11:13:31;;;;;;;4.63;3.53;;;14.80;99.90;;;;;;4888396;29;20055;-81
2024/02/16 11:16:09;;;;;;;8.93;6.32;;;14.70;99.90;;;;;;4894730;29;20036;-81
2024/02/16 11:18:46;;;;;;;7.35;5.25;;;14.40;99.90;;;;;;4892721;29;20070;-82
2024/02/16 11:21:17;;;;;;;5.25;4.35;;;14.20;99.90;;;;;;4904311;29;20041;-81
2024/02/16 11:23:46;;;;;;;8.60;7.22;;;14.10;99.90;;;;;;4868385;29;20117;-81
2024/02/16 11:26:14;;;;;;;8.48;6.68;;;13.90;99.90;;;;;;4889613;29;20397;-81
2024/02/16 11:28:42;;;;;;;7.47;5.70;;;13.70;99.90;;;;;;4871343;29;20040;-81
2024/02/16 11:31:12;;;;;;;8.02;7.30;;;13.70;99.90;;;;;;4878324;29;20124;-82
2024/02/16 11:33:45;;;;;;;6.43;5.80;;;13.70;99.90;;;;;;4880084;29;20055;-82
2024/02/16 11:36:12;;;;;;;8.73;7.70;;;13.70;99.90;;;;;;4888170;29;20101;-82
2024/02/16 11:38:40;;;;;;;8.27;6.82;;;13.60;99.90;;;;;;4883573;29;20061;-83
2024/02/16 11:41:08;;;;;;;9.25;8.23;;;13.60;99.90;;;;;;4901680;29;20127;-81
2024/02/16 11:43:36;;;;;;;8.57;6.20;;;13.60;99.90;;;;;;4872571;29;20485;-82
2024/02/16 11:46:14;;;;;;;9.52;8.48;;;13.60;99.90;;;;;;4870984;29;20048;-82
2024/02/16 11:48:41;;;;;;;12.88;8.75;;;13.60;99.90;;;;;;4877224;29;20052;-82
2024/02/16 11:51:09;;;;;;;9.13;7.28;;;13.60;99.90;;;;;;4875916;29;20521;-82
2024/02/16 11:53:38;;;;;;;11.90;8.45;;;13.60;99.90;;;;;;4889129;29;20068;-81
2024/02/16 11:56:05;;;;;;;10.35;8.63;;;13.50;99.90;;;;;;4879048;29;20100;-81
2024/02/16 11:58:34;;;;;;;9.80;8.30;;;13.40;99.90;;;;;;4861198;29;20455;-81
2024/02/16 12:01:01;;;;;;;9.48;8.48;;;13.30;99.90;;;;;;4889502;29;20415;-82
2024/02/16 12:03:30;;;;;;;12.02;8.68;;;13.20;99.90;;;;;;4873752;29;20171;-81
2024/02/16 12:05:59;;;;;;;9.15;7.20;;;13.00;99.90;;;;;;4852444;29;20063;-81
2024/02/16 12:08:35;;;;;;;8.75;7.85;;;12.90;99.90;;;;;;4888142;29;20531;-81
2024/02/16 12:11:08;;;;;;;9.90;8.40;;;12.80;99.90;;;;;;4872123;29;20078;-81
2024/02/16 12:13:35;;;;;;;9.95;8.32;;;12.70;99.90;;;;;;4892511;29;20538;-81
2024/02/16 12:16:06;;;;;;;11.15;9.68;;;12.60;99.90;;;;;;4889749;29;20041;-81
2024/02/16 12:18:34;;;;;;;13.27;11.65;;;12.50;99.90;;;;;;4861993;29;20041;-81
2024/02/16 12:21:06;;;;;;;11.35;9.10;;;12.50;99.90;;;;;;4893193;29;20508;-82
2024/02/16 12:23:35;;;;;;;9.00;7.05;;;12.50;99.90;;;;;;4900623;29;20479;-81
2024/02/16 12:26:05;;;;;;;8.23;7.40;;;12.40;99.90;;;;;;4890411;29;20056;-81
2024/02/16 12:28:36;;;;;;;19.30;7.95;;;12.40;99.90;;;;;;4904368;29;20130;-81
2024/02/16 12:31:05;;;;;;;8.25;6.85;;;12.30;99.90;;;;;;4895244;29;20048;-82
2024/02/16 12:33:34;;;;;;;9.00;8.20;;;12.30;99.90;;;;;;4869228;29;20051;-80
2024/02/16 12:36:01;;;;;;;6.95;5.50;;;12.20;99.90;;;;;;4891447;29;20048;-82
2024/02/16 12:38:29;;;;;;;7.68;5.90;;;12.20;99.90;;;;;;4856816;29;20103;-81
2024/02/16 12:40:57;;;;;;;8.43;6.82;;;12.20;99.90;;;;;;4875321;29;20067;-80
2024/02/16 12:43:28;;;;;;;6.72;5.88;;;12.20;99.90;;;;;;4882518;29;20032;-81
2024/02/16 12:45:59;;;;;;;6.63;5.05;;;12.10;99.90;;;;;;4889557;29;20021;-81
2024/02/16 12:48:28;;;;;;;7.00;4.50;;;12.10;99.90;;;;;;4895857;29;20025;-81
2024/02/16 12:50:57;;;;;;;5.97;4.35;;;12.10;99.90;;;;;;4875205;29;20052;-80
2024/02/16 12:53:30;;;;;;;6.88;5.43;;;12.10;99.90;;;;;;4899293;29;20109;-81
2024/02/16 12:55:57;;;;;;;7.45;5.60;;;12.10;99.90;;;;;;4862918;29;20131;-81
2024/02/16 12:58:32;;;;;;;8.25;4.80;;;12.10;99.90;;;;;;4868641;29;21534;-81
2024/02/16 13:01:01;;;;;;;9.02;6.90;;;12.10;99.90;;;;;;4853554;29;20244;-80